sensor_id;sensor_type;location;lat;lon;timestamp;P1;durP1;ratioP1;P2;durP2;ratioP2
77948;SDS011;67146;51.236;-0.336;2023-11-21T00:02:35;7.45;;;1.73;;
77948;SDS011;67146;51.236;-0.336;2023-11-21T00:07:36;6.00;;;1.63;;
77948;SDS011;67146;51.236;-0.336;2023-11-21T00:10:27;5.38;;;1.45;;
77948;SDS011;67146;51.236;-0.336;2023-11-21T00:13:18;5.72;;;1.63;;
77948;SDS011;67146;51.236;-0.336;2023-11-21T00:22:46;6.95;;;2.13;;
77948;SDS011;67146;51.236;-0.336;2023-11-21T00:28:51;7.70;;;1.48;;
77948;SDS011;67146;51.236;-0.336;2023-11-21T00:32:08;6.75;;;1.83;;
77948;SDS011;67146;51.236;-0.336;2023-11-21T00:35:17;7.25;;;2.50;;
77948;SDS011;67146;51.236;-0.336;2023-11-21T00:41:07;5.88;;;1.48;;
77948;SDS011;67146;51.236;-0.336;2023-11-21T00:43:59;8.25;;;1.67;;
77948;SDS011;67146;51.236;-0.336;2023-11-21T00:47:01;8.73;;;2.00;;
77948;SDS011;67146;51.236;-0.336;2023-11-21T00:49:52;6.05;;;1.83;;
77948;SDS011;67146;51.236;-0.336;2023-11-21T00:55:55;7.05;;;2.15;;
77948;SDS011;67146;51.236;-0.336;2023-11-21T00:58:51;5.80;;;1.80;;
77948;SDS011;67146;51.236;-0.336;2023-11-21T01:01:48;9.10;;;2.55;;
77948;SDS011;67146;51.236;-0.336;2023-11-21T01:04:50;8.10;;;3.40;;
77948;SDS011;67146;51.236;-0.336;2023-11-21T01:11:03;9.63;;;3.22;;
77948;SDS011;67146;51.236;-0.336;2023-11-21T01:17:05;6.95;;;3.00;;
77948;SDS011;67146;51.236;-0.336;2023-11-21T01:22:53;6.47;;;2.30;;
77948;SDS011;67146;51.236;-0.336;2023-11-21T01:25:52;8.98;;;3.78;;
77948;SDS011;67146;51.236;-0.336;2023-11-21T01:29:16;10.82;;;3.10;;
77948;SDS011;67146;51.236;-0.336;2023-11-21T01:41:57;9.60;;;3.13;;
77948;SDS011;67146;51.236;-0.336;2023-11-21T01:44:50;7.50;;;2.53;;
77948;SDS011;67146;51.236;-0.336;2023-11-21T01:47:57;7.90;;;2.45;;
77948;SDS011;67146;51.236;-0.336;2023-11-21T01:50:46;10.40;;;3.03;;
77948;SDS011;67146;51.236;-0.336;2023-11-21T02:03:44;8.60;;;3.17;;
77948;SDS011;67146;51.236;-0.336;2023-11-21T02:06:17;7.90;;;2.70;;
77948;SDS011;67146;51.236;-0.336;2023-11-21T02:12:08;6.88;;;2.35;;
77948;SDS011;67146;51.236;-0.336;2023-11-21T02:18:24;7.03;;;2.10;;
77948;SDS011;67146;51.236;-0.336;2023-11-21T02:21:57;5.20;;;2.13;;
77948;SDS011;67146;51.236;-0.336;2023-11-21T02:24:41;5.53;;;1.52;;
77948;SDS011;67146;51.236;-0.336;2023-11-21T02:27:38;7.25;;;2.17;;
77948;SDS011;67146;51.236;-0.336;2023-11-21T02:30:21;7.57;;;2.90;;
77948;SDS011;67146;51.236;-0.336;2023-11-21T02:33:14;6.65;;;2.33;;
77948;SDS011;67146;51.236;-0.336;2023-11-21T02:39:20;9.18;;;3.75;;
77948;SDS011;67146;51.236;-0.336;2023-11-21T02:45:03;9.48;;;4.22;;
77948;SDS011;67146;51.236;-0.336;2023-11-21T02:48:17;12.73;;;4.20;;
77948;SDS011;67146;51.236;-0.336;2023-11-21T02:51:08;10.18;;;3.38;;
77948;SDS011;67146;51.236;-0.336;2023-11-21T02:53:51;8.50;;;3.13;;
77948;SDS011;67146;51.236;-0.336;2023-11-21T02:56:45;11.82;;;3.55;;
77948;SDS011;67146;51.236;-0.336;2023-11-21T03:02:55;12.50;;;3.72;;
77948;SDS011;67146;51.236;-0.336;2023-11-21T03:05:37;9.63;;;4.15;;
77948;SDS011;67146;51.236;-0.336;2023-11-21T03:08:52;9.43;;;3.20;;
77948;SDS011;67146;51.236;-0.336;2023-11-21T03:11:30;9.35;;;3.80;;
77948;SDS011;67146;51.236;-0.336;2023-11-21T03:14:26;8.65;;;2.88;;
77948;SDS011;67146;51.236;-0.336;2023-11-21T03:17:40;7.72;;;2.75;;
77948;SDS011;67146;51.236;-0.336;2023-11-21T03:23:43;7.38;;;2.63;;
77948;SDS011;67146;51.236;-0.336;2023-11-21T03:26:35;8.32;;;3.03;;
77948;SDS011;67146;51.236;-0.336;2023-11-21T03:29:25;9.00;;;2.75;;
77948;SDS011;67146;51.236;-0.336;2023-11-21T03:32:31;7.50;;;2.97;;
77948;SDS011;67146;51.236;-0.336;2023-11-21T03:37:55;8.05;;;2.65;;
77948;SDS011;67146;51.236;-0.336;2023-11-21T03:43:51;8.38;;;2.65;;
77948;SDS011;67146;51.236;-0.336;2023-11-21T03:46:28;10.05;;;3.20;;
77948;SDS011;67146;51.236;-0.336;2023-11-21T03:49:12;8.43;;;2.72;;
77948;SDS011;67146;51.236;-0.336;2023-11-21T03:52:21;5.95;;;2.00;;
77948;SDS011;67146;51.236;-0.336;2023-11-21T03:55:00;7.18;;;2.42;;
77948;SDS011;67146;51.236;-0.336;2023-11-21T03:57:39;7.28;;;2.38;;
77948;SDS011;67146;51.236;-0.336;2023-11-21T04:00:45;6.00;;;1.92;;
77948;SDS011;67146;51.236;-0.336;2023-11-21T04:03:19;6.28;;;2.63;;
77948;SDS011;67146;51.236;-0.336;2023-11-21T04:06:01;9.60;;;1.73;;
77948;SDS011;67146;51.236;-0.336;2023-11-21T04:08:48;4.50;;;1.15;;
77948;SDS011;67146;51.236;-0.336;2023-11-21T04:14:59;3.20;;;0.73;;
77948;SDS011;67146;51.236;-0.336;2023-11-21T04:17:34;3.60;;;0.73;;
77948;SDS011;67146;51.236;-0.336;2023-11-21T04:20:10;3.40;;;0.68;;
77948;SDS011;67146;51.236;-0.336;2023-11-21T04:23:00;3.78;;;0.65;;
77948;SDS011;67146;51.236;-0.336;2023-11-21T04:25:31;4.50;;;0.50;;
77948;SDS011;67146;51.236;-0.336;2023-11-21T04:28:07;3.65;;;0.50;;
77948;SDS011;67146;51.236;-0.336;2023-11-21T04:30:44;3.33;;;0.30;;
77948;SDS011;67146;51.236;-0.336;2023-11-21T04:33:21;2.65;;;0.28;;
77948;SDS011;67146;51.236;-0.336;2023-11-21T04:35:57;2.92;;;0.35;;
77948;SDS011;67146;51.236;-0.336;2023-11-21T04:38:43;3.85;;;0.73;;
77948;SDS011;67146;51.236;-0.336;2023-11-21T04:41:15;3.28;;;0.68;;
77948;SDS011;67146;51.236;-0.336;2023-11-21T04:43:46;3.47;;;0.68;;
77948;SDS011;67146;51.236;-0.336;2023-11-21T04:46:20;3.65;;;0.80;;
77948;SDS011;67146;51.236;-0.336;2023-11-21T04:48:58;3.70;;;0.75;;
77948;SDS011;67146;51.236;-0.336;2023-11-21T04:51:33;4.07;;;0.70;;
77948;SDS011;67146;51.236;-0.336;2023-11-21T04:54:09;3.92;;;0.63;;
77948;SDS011;67146;51.236;-0.336;2023-11-21T04:56:55;3.90;;;0.73;;
77948;SDS011;67146;51.236;-0.336;2023-11-21T04:59:46;4.50;;;1.08;;
77948;SDS011;67146;51.236;-0.336;2023-11-21T05:02:47;3.63;;;0.60;;
77948;SDS011;67146;51.236;-0.336;2023-11-21T05:05:35;3.60;;;0.75;;
77948;SDS011;67146;51.236;-0.336;2023-11-21T05:08:21;2.65;;;0.43;;
77948;SDS011;67146;51.236;-0.336;2023-11-21T05:14:34;3.53;;;0.52;;
77948;SDS011;67146;51.236;-0.336;2023-11-21T05:17:02;2.33;;;0.32;;
77948;SDS011;67146;51.236;-0.336;2023-11-21T05:19:35;3.67;;;0.47;;
77948;SDS011;67146;51.236;-0.336;2023-11-21T05:22:15;4.22;;;0.60;;
77948;SDS011;67146;51.236;-0.336;2023-11-21T05:24:45;3.53;;;0.52;;
77948;SDS011;67146;51.236;-0.336;2023-11-21T05:27:22;4.20;;;0.57;;
77948;SDS011;67146;51.236;-0.336;2023-11-21T05:30:31;4.18;;;0.73;;
77948;SDS011;67146;51.236;-0.336;2023-11-21T05:33:27;2.72;;;0.32;;
77948;SDS011;67146;51.236;-0.336;2023-11-21T05:39:43;2.72;;;0.47;;
77948;SDS011;67146;51.236;-0.336;2023-11-21T05:42:35;4.35;;;0.50;;
77948;SDS011;67146;51.236;-0.336;2023-11-21T05:45:14;4.95;;;0.52;;
77948;SDS011;67146;51.236;-0.336;2023-11-21T05:51:28;3.33;;;0.65;;
77948;SDS011;67146;51.236;-0.336;2023-11-21T05:54:08;3.90;;;0.57;;
77948;SDS011;67146;51.236;-0.336;2023-11-21T05:57:22;3.83;;;0.82;;
77948;SDS011;67146;51.236;-0.336;2023-11-21T06:03:27;5.82;;;1.35;;
77948;SDS011;67146;51.236;-0.336;2023-11-21T06:06:20;2.70;;;0.43;;
77948;SDS011;67146;51.236;-0.336;2023-11-21T06:09:00;4.00;;;0.80;;
77948;SDS011;67146;51.236;-0.336;2023-11-21T06:11:49;3.45;;;0.70;;
77948;SDS011;67146;51.236;-0.336;2023-11-21T06:14:45;4.53;;;0.57;;
77948;SDS011;67146;51.236;-0.336;2023-11-21T06:17:41;4.43;;;1.15;;
77948;SDS011;67146;51.236;-0.336;2023-11-21T06:23:53;4.93;;;0.73;;
77948;SDS011;67146;51.236;-0.336;2023-11-21T06:27:19;4.05;;;0.82;;
77948;SDS011;67146;51.236;-0.336;2023-11-21T06:33:15;4.50;;;0.65;;
77948;SDS011;67146;51.236;-0.336;2023-11-21T06:39:19;3.15;;;0.52;;
77948;SDS011;67146;51.236;-0.336;2023-11-21T06:45:32;4.25;;;0.68;;
77948;SDS011;67146;51.236;-0.336;2023-11-21T06:48:21;4.30;;;1.13;;
77948;SDS011;67146;51.236;-0.336;2023-11-21T06:50:49;4.47;;;0.73;;
77948;SDS011;67146;51.236;-0.336;2023-11-21T06:57:34;3.50;;;0.52;;
77948;SDS011;67146;51.236;-0.336;2023-11-21T07:06:53;4.65;;;0.43;;
77948;SDS011;67146;51.236;-0.336;2023-11-21T07:09:51;5.18;;;0.82;;
77948;SDS011;67146;51.236;-0.336;2023-11-21T07:12:55;3.22;;;0.70;;
77948;SDS011;67146;51.236;-0.336;2023-11-21T07:15:23;4.82;;;0.85;;
77948;SDS011;67146;51.236;-0.336;2023-11-21T07:18:03;4.65;;;1.08;;
77948;SDS011;67146;51.236;-0.336;2023-11-21T07:24:03;5.47;;;0.93;;
77948;SDS011;67146;51.236;-0.336;2023-11-21T07:27:11;4.10;;;1.00;;
77948;SDS011;67146;51.236;-0.336;2023-11-21T07:30:02;3.65;;;0.70;;
77948;SDS011;67146;51.236;-0.336;2023-11-21T07:32:35;4.35;;;0.80;;
77948;SDS011;67146;51.236;-0.336;2023-11-21T07:35:33;5.03;;;0.70;;
77948;SDS011;67146;51.236;-0.336;2023-11-21T07:38:23;3.03;;;0.52;;
77948;SDS011;67146;51.236;-0.336;2023-11-21T07:41:15;4.53;;;0.52;;
77948;SDS011;67146;51.236;-0.336;2023-11-21T07:44:28;5.68;;;0.50;;
77948;SDS011;67146;51.236;-0.336;2023-11-21T07:47:43;3.47;;;0.28;;
77948;SDS011;67146;51.236;-0.336;2023-11-21T07:50:41;2.65;;;0.38;;
77948;SDS011;67146;51.236;-0.336;2023-11-21T07:53:19;3.42;;;1.05;;
77948;SDS011;67146;51.236;-0.336;2023-11-21T07:56:12;4.45;;;0.65;;
77948;SDS011;67146;51.236;-0.336;2023-11-21T07:59:45;2.47;;;0.38;;
77948;SDS011;67146;51.236;-0.336;2023-11-21T08:02:34;2.90;;;0.30;;
77948;SDS011;67146;51.236;-0.336;2023-11-21T08:05:10;2.22;;;0.20;;
77948;SDS011;67146;51.236;-0.336;2023-11-21T08:08:53;5.38;;;0.57;;
77948;SDS011;67146;51.236;-0.336;2023-11-21T08:11:13;2.60;;;0.32;;
77948;SDS011;67146;51.236;-0.336;2023-11-21T08:14:11;1.67;;;0.25;;
77948;SDS011;67146;51.236;-0.336;2023-11-21T08:19:21;3.63;;;0.52;;
77948;SDS011;67146;51.236;-0.336;2023-11-21T08:22:03;3.70;;;0.50;;
77948;SDS011;67146;51.236;-0.336;2023-11-21T08:28:12;3.28;;;0.30;;
77948;SDS011;67146;51.236;-0.336;2023-11-21T08:30:52;2.35;;;0.32;;
77948;SDS011;67146;51.236;-0.336;2023-11-21T08:33:55;2.38;;;0.40;;
77948;SDS011;67146;51.236;-0.336;2023-11-21T08:37:28;2.55;;;0.40;;
77948;SDS011;67146;51.236;-0.336;2023-11-21T08:40:23;2.85;;;0.22;;
77948;SDS011;67146;51.236;-0.336;2023-11-21T08:42:57;3.00;;;0.32;;
77948;SDS011;67146;51.236;-0.336;2023-11-21T08:45:41;3.83;;;0.60;;
77948;SDS011;67146;51.236;-0.336;2023-11-21T08:48:06;3.55;;;0.40;;
77948;SDS011;67146;51.236;-0.336;2023-11-21T08:50:45;2.90;;;0.40;;
77948;SDS011;67146;51.236;-0.336;2023-11-21T08:53:27;2.65;;;0.25;;
77948;SDS011;67146;51.236;-0.336;2023-11-21T08:56:10;3.42;;;0.43;;
77948;SDS011;67146;51.236;-0.336;2023-11-21T08:59:08;2.72;;;0.20;;
77948;SDS011;67146;51.236;-0.336;2023-11-21T09:01:44;2.08;;;0.20;;
77948;SDS011;67146;51.236;-0.336;2023-11-21T09:07:51;8.27;;;1.15;;
77948;SDS011;67146;51.236;-0.336;2023-11-21T09:10:26;6.57;;;0.75;;
77948;SDS011;67146;51.236;-0.336;2023-11-21T09:13:15;2.95;;;0.35;;
77948;SDS011;67146;51.236;-0.336;2023-11-21T09:19:05;5.10;;;0.45;;
77948;SDS011;67146;51.236;-0.336;2023-11-21T09:25:11;4.32;;;0.47;;
77948;SDS011;67146;51.236;-0.336;2023-11-21T09:31:18;2.03;;;0.20;;
77948;SDS011;67146;51.236;-0.336;2023-11-21T09:37:09;2.50;;;0.47;;
77948;SDS011;67146;51.236;-0.336;2023-11-21T09:40:00;5.00;;;0.57;;
77948;SDS011;67146;51.236;-0.336;2023-11-21T09:49:21;3.22;;;0.52;;
77948;SDS011;67146;51.236;-0.336;2023-11-21T09:55:54;4.63;;;0.50;;
77948;SDS011;67146;51.236;-0.336;2023-11-21T09:58:36;3.50;;;0.60;;
77948;SDS011;67146;51.236;-0.336;2023-11-21T10:01:33;6.53;;;0.52;;
77948;SDS011;67146;51.236;-0.336;2023-11-21T10:04:34;3.30;;;1.17;;
77948;SDS011;67146;51.236;-0.336;2023-11-21T10:07:08;3.25;;;0.47;;
77948;SDS011;67146;51.236;-0.336;2023-11-21T10:10:12;2.50;;;0.43;;
77948;SDS011;67146;51.236;-0.336;2023-11-21T10:13:26;3.03;;;0.32;;
77948;SDS011;67146;51.236;-0.336;2023-11-21T10:18:56;2.45;;;0.50;;
77948;SDS011;67146;51.236;-0.336;2023-11-21T10:25:00;2.45;;;0.50;;
77948;SDS011;67146;51.236;-0.336;2023-11-21T10:31:13;3.10;;;0.63;;
77948;SDS011;67146;51.236;-0.336;2023-11-21T10:34:17;2.95;;;0.50;;
77948;SDS011;67146;51.236;-0.336;2023-11-21T10:37:02;3.42;;;0.68;;
77948;SDS011;67146;51.236;-0.336;2023-11-21T10:40:28;2.90;;;0.40;;
77948;SDS011;67146;51.236;-0.336;2023-11-21T10:43:32;3.67;;;0.55;;
77948;SDS011;67146;51.236;-0.336;2023-11-21T10:46:29;4.68;;;0.52;;
77948;SDS011;67146;51.236;-0.336;2023-11-21T10:49:34;3.53;;;1.10;;
77948;SDS011;67146;51.236;-0.336;2023-11-21T10:52:33;3.15;;;0.88;;
77948;SDS011;67146;51.236;-0.336;2023-11-21T10:55:35;6.10;;;1.02;;
77948;SDS011;67146;51.236;-0.336;2023-11-21T11:01:10;3.83;;;0.70;;
77948;SDS011;67146;51.236;-0.336;2023-11-21T11:06:42;3.90;;;0.82;;
77948;SDS011;67146;51.236;-0.336;2023-11-21T11:12:53;3.28;;;0.52;;
77948;SDS011;67146;51.236;-0.336;2023-11-21T11:15:32;2.53;;;0.32;;
77948;SDS011;67146;51.236;-0.336;2023-11-21T11:18:00;3.13;;;0.43;;
77948;SDS011;67146;51.236;-0.336;2023-11-21T11:42:41;3.55;;;0.65;;
77948;SDS011;67146;51.236;-0.336;2023-11-21T11:45:37;3.45;;;0.68;;
77948;SDS011;67146;51.236;-0.336;2023-11-21T11:51:09;4.75;;;0.60;;
77948;SDS011;67146;51.236;-0.336;2023-11-21T11:53:55;4.53;;;1.00;;
77948;SDS011;67146;51.236;-0.336;2023-11-21T11:56:36;5.97;;;0.82;;
77948;SDS011;67146;51.236;-0.336;2023-11-21T11:59:25;4.10;;;0.80;;
77948;SDS011;67146;51.236;-0.336;2023-11-21T12:02:29;3.50;;;0.70;;
77948;SDS011;67146;51.236;-0.336;2023-11-21T12:05:16;2.80;;;0.47;;
77948;SDS011;67146;51.236;-0.336;2023-11-21T12:11:01;2.75;;;0.45;;
77948;SDS011;67146;51.236;-0.336;2023-11-21T12:13:41;4.15;;;0.77;;
77948;SDS011;67146;51.236;-0.336;2023-11-21T12:16:19;3.10;;;0.68;;
77948;SDS011;67146;51.236;-0.336;2023-11-21T12:19:22;7.32;;;0.70;;
77948;SDS011;67146;51.236;-0.336;2023-11-21T12:21:56;3.80;;;0.77;;
77948;SDS011;67146;51.236;-0.336;2023-11-21T12:24:51;4.35;;;0.50;;
77948;SDS011;67146;51.236;-0.336;2023-11-21T12:27:37;5.13;;;0.88;;
77948;SDS011;67146;51.236;-0.336;2023-11-21T12:30:11;3.35;;;0.60;;
77948;SDS011;67146;51.236;-0.336;2023-11-21T12:33:16;2.60;;;0.52;;
77948;SDS011;67146;51.236;-0.336;2023-11-21T12:35:55;4.60;;;0.63;;
77948;SDS011;67146;51.236;-0.336;2023-11-21T12:38:36;3.15;;;0.68;;
77948;SDS011;67146;51.236;-0.336;2023-11-21T12:41:27;2.63;;;0.35;;
77948;SDS011;67146;51.236;-0.336;2023-11-21T12:46:45;2.42;;;0.43;;
77948;SDS011;67146;51.236;-0.336;2023-11-21T12:49:13;3.28;;;0.50;;
77948;SDS011;67146;51.236;-0.336;2023-11-21T12:52:07;3.15;;;0.65;;
77948;SDS011;67146;51.236;-0.336;2023-11-21T12:54:53;1.88;;;0.43;;
77948;SDS011;67146;51.236;-0.336;2023-11-21T13:00:38;3.05;;;0.52;;
77948;SDS011;67146;51.236;-0.336;2023-11-21T13:03:20;3.08;;;0.82;;
77948;SDS011;67146;51.236;-0.336;2023-11-21T13:06:03;3.03;;;0.50;;
77948;SDS011;67146;51.236;-0.336;2023-11-21T13:12:03;2.65;;;0.40;;
77948;SDS011;67146;51.236;-0.336;2023-11-21T13:15:08;3.00;;;0.68;;
77948;SDS011;67146;51.236;-0.336;2023-11-21T13:18:06;3.85;;;0.98;;
77948;SDS011;67146;51.236;-0.336;2023-11-21T13:21:00;3.38;;;0.57;;
77948;SDS011;67146;51.236;-0.336;2023-11-21T13:23:44;3.95;;;1.30;;
77948;SDS011;67146;51.236;-0.336;2023-11-21T13:26:24;2.90;;;0.85;;
77948;SDS011;67146;51.236;-0.336;2023-11-21T13:29:12;3.75;;;0.35;;
77948;SDS011;67146;51.236;-0.336;2023-11-21T13:31:54;4.57;;;0.45;;
77948;SDS011;67146;51.236;-0.336;2023-11-21T13:34:20;3.25;;;0.52;;
77948;SDS011;67146;51.236;-0.336;2023-11-21T13:37:10;7.63;;;0.75;;
77948;SDS011;67146;51.236;-0.336;2023-11-21T13:39:38;3.97;;;0.75;;
77948;SDS011;67146;51.236;-0.336;2023-11-21T13:45:26;4.25;;;0.60;;
77948;SDS011;67146;51.236;-0.336;2023-11-21T13:48:02;2.38;;;0.32;;
77948;SDS011;67146;51.236;-0.336;2023-11-21T13:50:44;3.72;;;0.55;;
77948;SDS011;67146;51.236;-0.336;2023-11-21T13:57:13;2.85;;;0.43;;
77948;SDS011;67146;51.236;-0.336;2023-11-21T13:59:52;2.75;;;0.47;;
77948;SDS011;67146;51.236;-0.336;2023-11-21T14:10:05;3.83;;;0.57;;
77948;SDS011;67146;51.236;-0.336;2023-11-21T14:13:15;2.95;;;0.57;;
77948;SDS011;67146;51.236;-0.336;2023-11-21T14:16:15;2.00;;;0.38;;
77948;SDS011;67146;51.236;-0.336;2023-11-21T14:22:45;3.35;;;0.10;;
77948;SDS011;67146;51.236;-0.336;2023-11-21T14:31:34;2.25;;;0.30;;
77948;SDS011;67146;51.236;-0.336;2023-11-21T14:34:13;1.33;;;0.10;;
77948;SDS011;67146;51.236;-0.336;2023-11-21T14:37:13;1.38;;;0.22;;
77948;SDS011;67146;51.236;-0.336;2023-11-21T14:39:58;1.30;;;0.13;;
77948;SDS011;67146;51.236;-0.336;2023-11-21T14:45:32;1.25;;;0.10;;
77948;SDS011;67146;51.236;-0.336;2023-11-21T14:48:21;2.25;;;0.22;;
77948;SDS011;67146;51.236;-0.336;2023-11-21T14:51:18;1.60;;;0.25;;
77948;SDS011;67146;51.236;-0.336;2023-11-21T14:53:57;0.88;;;0.08;;
77948;SDS011;67146;51.236;-0.336;2023-11-21T14:57:23;3.10;;;0.30;;
77948;SDS011;67146;51.236;-0.336;2023-11-21T14:59:53;1.88;;;0.32;;
77948;SDS011;67146;51.236;-0.336;2023-11-21T15:02:46;3.08;;;0.22;;
77948;SDS011;67146;51.236;-0.336;2023-11-21T15:05:19;3.88;;;0.43;;
77948;SDS011;67146;51.236;-0.336;2023-11-21T15:11:09;5.50;;;0.70;;
77948;SDS011;67146;51.236;-0.336;2023-11-21T15:13:55;4.45;;;0.35;;
77948;SDS011;67146;51.236;-0.336;2023-11-21T15:16:55;4.35;;;0.38;;
77948;SDS011;67146;51.236;-0.336;2023-11-21T15:19:48;5.97;;;0.40;;
77948;SDS011;67146;51.236;-0.336;2023-11-21T15:26:03;2.35;;;0.38;;
77948;SDS011;67146;51.236;-0.336;2023-11-21T15:28:47;5.15;;;0.40;;
77948;SDS011;67146;51.236;-0.336;2023-11-21T15:31:34;4.93;;;0.32;;
77948;SDS011;67146;51.236;-0.336;2023-11-21T15:34:27;8.30;;;0.45;;
77948;SDS011;67146;51.236;-0.336;2023-11-21T15:37:40;4.63;;;0.40;;
77948;SDS011;67146;51.236;-0.336;2023-11-21T15:40:29;5.03;;;0.35;;
77948;SDS011;67146;51.236;-0.336;2023-11-21T15:46:20;5.28;;;0.65;;
77948;SDS011;67146;51.236;-0.336;2023-11-21T15:49:17;5.60;;;0.52;;
77948;SDS011;67146;51.236;-0.336;2023-11-21T15:52:13;4.65;;;0.43;;
77948;SDS011;67146;51.236;-0.336;2023-11-21T15:55:16;4.10;;;0.35;;
77948;SDS011;67146;51.236;-0.336;2023-11-21T15:58:05;4.35;;;0.63;;
77948;SDS011;67146;51.236;-0.336;2023-11-21T16:04:09;5.38;;;0.47;;
77948;SDS011;67146;51.236;-0.336;2023-11-21T16:06:54;4.50;;;0.40;;
77948;SDS011;67146;51.236;-0.336;2023-11-21T16:09:42;5.78;;;0.35;;
77948;SDS011;67146;51.236;-0.336;2023-11-21T16:12:50;4.88;;;0.65;;
77948;SDS011;67146;51.236;-0.336;2023-11-21T16:15:40;5.57;;;0.70;;
77948;SDS011;67146;51.236;-0.336;2023-11-21T16:18:31;4.93;;;0.22;;
77948;SDS011;67146;51.236;-0.336;2023-11-21T16:21:11;4.10;;;0.22;;
77948;SDS011;67146;51.236;-0.336;2023-11-21T16:23:46;4.05;;;0.70;;
77948;SDS011;67146;51.236;-0.336;2023-11-21T16:26:31;3.05;;;0.22;;
77948;SDS011;67146;51.236;-0.336;2023-11-21T16:32:08;4.85;;;0.43;;
77948;SDS011;67146;51.236;-0.336;2023-11-21T16:35:29;5.10;;;0.60;;
77948;SDS011;67146;51.236;-0.336;2023-11-21T16:38:09;4.65;;;0.65;;
77948;SDS011;67146;51.236;-0.336;2023-11-21T16:41:10;2.88;;;0.40;;
77948;SDS011;67146;51.236;-0.336;2023-11-21T16:43:52;5.20;;;0.35;;
77948;SDS011;67146;51.236;-0.336;2023-11-21T16:46:43;6.53;;;0.40;;
77948;SDS011;67146;51.236;-0.336;2023-11-21T16:49:41;6.38;;;0.30;;
77948;SDS011;67146;51.236;-0.336;2023-11-21T16:55:28;4.32;;;0.40;;
77948;SDS011;67146;51.236;-0.336;2023-11-21T16:58:22;5.70;;;0.70;;
77948;SDS011;67146;51.236;-0.336;2023-11-21T17:01:18;2.03;;;0.22;;
77948;SDS011;67146;51.236;-0.336;2023-11-21T17:03:57;7.95;;;0.60;;
77948;SDS011;67146;51.236;-0.336;2023-11-21T17:06:44;4.18;;;0.30;;
77948;SDS011;67146;51.236;-0.336;2023-11-21T17:09:25;9.35;;;0.80;;
77948;SDS011;67146;51.236;-0.336;2023-11-21T17:12:42;4.32;;;0.40;;
77948;SDS011;67146;51.236;-0.336;2023-11-21T17:15:22;6.78;;;0.50;;
77948;SDS011;67146;51.236;-0.336;2023-11-21T17:18:08;6.68;;;0.90;;
77948;SDS011;67146;51.236;-0.336;2023-11-21T17:20:42;7.95;;;0.63;;
77948;SDS011;67146;51.236;-0.336;2023-11-21T17:23:10;8.23;;;1.00;;
77948;SDS011;67146;51.236;-0.336;2023-11-21T17:26:08;5.15;;;0.43;;
77948;SDS011;67146;51.236;-0.336;2023-11-21T17:28:50;5.97;;;0.55;;
77948;SDS011;67146;51.236;-0.336;2023-11-21T17:31:43;4.22;;;0.30;;
77948;SDS011;67146;51.236;-0.336;2023-11-21T17:34:09;6.03;;;0.52;;
77948;SDS011;67146;51.236;-0.336;2023-11-21T17:37:26;7.70;;;0.82;;
77948;SDS011;67146;51.236;-0.336;2023-11-21T17:46:03;8.25;;;1.10;;
77948;SDS011;67146;51.236;-0.336;2023-11-21T17:51:34;5.28;;;0.45;;
77948;SDS011;67146;51.236;-0.336;2023-11-21T17:54:22;6.63;;;0.52;;
77948;SDS011;67146;51.236;-0.336;2023-11-21T18:00:14;6.13;;;0.95;;
77948;SDS011;67146;51.236;-0.336;2023-11-21T18:02:42;8.60;;;0.93;;
77948;SDS011;67146;51.236;-0.336;2023-11-21T18:05:21;7.88;;;0.90;;
77948;SDS011;67146;51.236;-0.336;2023-11-21T18:07:58;7.18;;;0.60;;
77948;SDS011;67146;51.236;-0.336;2023-11-21T18:10:34;8.00;;;0.57;;
77948;SDS011;67146;51.236;-0.336;2023-11-21T18:13:07;5.45;;;0.85;;
77948;SDS011;67146;51.236;-0.336;2023-11-21T18:18:52;5.05;;;0.55;;
77948;SDS011;67146;51.236;-0.336;2023-11-21T18:21:28;6.43;;;0.55;;
77948;SDS011;67146;51.236;-0.336;2023-11-21T18:24:02;5.28;;;0.90;;
77948;SDS011;67146;51.236;-0.336;2023-11-21T18:26:29;8.02;;;0.93;;
77948;SDS011;67146;51.236;-0.336;2023-11-21T18:29:09;6.75;;;1.10;;
77948;SDS011;67146;51.236;-0.336;2023-11-21T18:31:44;6.50;;;1.00;;
77948;SDS011;67146;51.236;-0.336;2023-11-21T18:34:15;6.43;;;0.85;;
77948;SDS011;67146;51.236;-0.336;2023-11-21T18:36:44;4.25;;;0.68;;
77948;SDS011;67146;51.236;-0.336;2023-11-21T18:39:19;11.63;;;1.75;;
77948;SDS011;67146;51.236;-0.336;2023-11-21T18:42:18;9.15;;;1.73;;
77948;SDS011;67146;51.236;-0.336;2023-11-21T18:45:03;10.23;;;1.58;;
77948;SDS011;67146;51.236;-0.336;2023-11-21T18:47:55;4.70;;;1.15;;
77948;SDS011;67146;51.236;-0.336;2023-11-21T18:50:23;7.97;;;0.88;;
77948;SDS011;67146;51.236;-0.336;2023-11-21T18:52:51;7.75;;;0.77;;
77948;SDS011;67146;51.236;-0.336;2023-11-21T18:55:44;4.63;;;0.80;;
77948;SDS011;67146;51.236;-0.336;2023-11-21T18:58:37;4.50;;;0.43;;
77948;SDS011;67146;51.236;-0.336;2023-11-21T19:04:13;7.05;;;0.63;;
77948;SDS011;67146;51.236;-0.336;2023-11-21T19:06:51;7.78;;;0.73;;
77948;SDS011;67146;51.236;-0.336;2023-11-21T19:09:43;8.52;;;0.75;;
77948;SDS011;67146;51.236;-0.336;2023-11-21T19:15:20;6.90;;;1.30;;
77948;SDS011;67146;51.236;-0.336;2023-11-21T19:18:11;3.65;;;0.43;;
77948;SDS011;67146;51.236;-0.336;2023-11-21T19:20:43;16.58;;;2.03;;
77948;SDS011;67146;51.236;-0.336;2023-11-21T19:23:19;8.20;;;0.88;;
77948;SDS011;67146;51.236;-0.336;2023-11-21T19:26:00;7.57;;;1.30;;
77948;SDS011;67146;51.236;-0.336;2023-11-21T19:28:39;7.03;;;1.17;;
77948;SDS011;67146;51.236;-0.336;2023-11-21T19:31:32;8.82;;;1.42;;
77948;SDS011;67146;51.236;-0.336;2023-11-21T19:34:28;10.13;;;1.23;;
77948;SDS011;67146;51.236;-0.336;2023-11-21T19:37:04;6.90;;;1.60;;
77948;SDS011;67146;51.236;-0.336;2023-11-21T19:39:42;8.75;;;0.90;;
77948;SDS011;67146;51.236;-0.336;2023-11-21T19:42:19;10.57;;;1.23;;
77948;SDS011;67146;51.236;-0.336;2023-11-21T19:44:59;10.10;;;2.13;;
77948;SDS011;67146;51.236;-0.336;2023-11-21T19:47:37;7.60;;;0.90;;
77948;SDS011;67146;51.236;-0.336;2023-11-21T19:50:43;18.52;;;2.10;;
77948;SDS011;67146;51.236;-0.336;2023-11-21T19:53:43;8.13;;;1.83;;
77948;SDS011;67146;51.236;-0.336;2023-11-21T19:56:33;5.35;;;0.70;;
77948;SDS011;67146;51.236;-0.336;2023-11-21T19:59:51;9.68;;;1.35;;
77948;SDS011;67146;51.236;-0.336;2023-11-21T20:02:40;5.68;;;0.85;;
77948;SDS011;67146;51.236;-0.336;2023-11-21T20:14:33;6.30;;;1.35;;
77948;SDS011;67146;51.236;-0.336;2023-11-21T20:17:11;6.55;;;0.85;;
77948;SDS011;67146;51.236;-0.336;2023-11-21T20:23:07;4.78;;;0.63;;
77948;SDS011;67146;51.236;-0.336;2023-11-21T20:25:46;6.97;;;0.85;;
77948;SDS011;67146;51.236;-0.336;2023-11-21T20:28:31;6.75;;;0.95;;
77948;SDS011;67146;51.236;-0.336;2023-11-21T20:31:03;6.05;;;0.63;;
77948;SDS011;67146;51.236;-0.336;2023-11-21T20:33:40;6.28;;;0.60;;
77948;SDS011;67146;51.236;-0.336;2023-11-21T20:42:25;7.15;;;0.60;;
77948;SDS011;67146;51.236;-0.336;2023-11-21T20:45:10;7.82;;;0.73;;
77948;SDS011;67146;51.236;-0.336;2023-11-21T20:47:57;5.70;;;1.42;;
77948;SDS011;67146;51.236;-0.336;2023-11-21T20:50:48;5.57;;;0.98;;
77948;SDS011;67146;51.236;-0.336;2023-11-21T20:53:52;5.85;;;0.95;;
77948;SDS011;67146;51.236;-0.336;2023-11-21T20:56:59;4.15;;;0.82;;
77948;SDS011;67146;51.236;-0.336;2023-11-21T20:59:39;3.78;;;1.10;;
77948;SDS011;67146;51.236;-0.336;2023-11-21T21:03:02;8.20;;;0.85;;
77948;SDS011;67146;51.236;-0.336;2023-11-21T21:05:52;6.25;;;0.93;;
77948;SDS011;67146;51.236;-0.336;2023-11-21T21:11:58;5.55;;;0.70;;
77948;SDS011;67146;51.236;-0.336;2023-11-21T21:14:55;7.05;;;0.70;;
77948;SDS011;67146;51.236;-0.336;2023-11-21T21:17:49;7.00;;;0.88;;
77948;SDS011;67146;51.236;-0.336;2023-11-21T21:20:34;5.30;;;1.17;;
77948;SDS011;67146;51.236;-0.336;2023-11-21T21:26:28;6.88;;;0.90;;
77948;SDS011;67146;51.236;-0.336;2023-11-21T21:29:13;11.73;;;0.82;;
77948;SDS011;67146;51.236;-0.336;2023-11-21T21:32:02;6.72;;;1.00;;
77948;SDS011;67146;51.236;-0.336;2023-11-21T21:34:57;6.05;;;0.77;;